Time,TemperatureF,DewpointF,PressureIn,WindDirection,WindDirectionDegrees,WindSpeedMPH,WindSpeedGustMPH,Humidity,HourlyPrecipIn,Conditions,Clouds,dailyrainin,SolarRadiationWatts/m^2,SoftwareType,DateUTC
2013-02-28 00:03:00,32.8,33.0,29.64,NNE,13,5.1,5.1,99,0.00,,,0.00,0,TxWx,2013-02-28 06:03:00,
2013-02-28 00:08:00,32.8,33.0,29.64,North,356,7.8,7.8,99,0.00,,,0.00,0,TxWx,2013-02-28 06:08:00,
2013-02-28 00:14:00,32.8,33.0,29.65,WNW,283,6.3,6.9,99,0.00,,,0.00,0,TxWx,2013-02-28 06:14:00,
2013-02-28 00:19:00,32.7,33.0,29.65,North,355,5.4,7.2,99,0.00,,,0.00,0,TxWx,2013-02-28 06:19:00,
2013-02-28 00:24:00,32.7,33.0,29.65,NW,305,6.3,7.2,99,0.00,,,0.00,0,TxWx,2013-02-28 06:24:00,
2013-02-28 00:29:00,32.8,33.0,29.66,NNE,15,4.8,4.8,99,0.00,,,0.00,0,TxWx,2013-02-28 06:29:00,
2013-02-28 00:35:00,32.8,33.0,29.66,NNW,330,3.3,3.3,99,0.00,,,0.00,0,TxWx,2013-02-28 06:35:00,
2013-02-28 00:40:00,32.8,33.0,29.66,NNW,336,5.4,5.7,99,0.00,,,0.00,0,TxWx,2013-02-28 06:40:00,
2013-02-28 00:45:00,32.8,33.0,29.66,NNW,339,3.9,4.2,99,0.00,,,0.00,0,TxWx,2013-02-28 06:45:00,
2013-02-28 00:50:00,32.8,33.0,29.66,NNW,334,10.5,10.5,99,0.00,,,0.00,0,TxWx,2013-02-28 06:50:00,
2013-02-28 00:55:00,32.8,33.0,29.66,WNW,303,5.7,5.7,99,0.00,,,0.00,0,TxWx,2013-02-28 06:55:00,
2013-02-28 01:01:00,32.8,33.0,29.66,NNW,328,4.8,5.4,99,0.00,,,0.00,0,TxWx,2013-02-28 07:01:00,
2013-02-28 01:06:00,32.9,33.0,29.66,NW,317,4.8,4.8,99,0.00,,,0.00,0,TxWx,2013-02-28 07:06:00,
2013-02-28 01:11:00,32.9,33.0,29.67,WNW,297,3.6,4.2,99,0.00,,,0.00,0,TxWx,2013-02-28 07:11:00,
2013-02-28 01:16:00,33.0,33.0,29.67,WNW,302,6.3,6.6,99,0.00,,,0.00,0,TxWx,2013-02-28 07:16:00,
2013-02-28 01:22:00,33.0,33.0,29.67,NW,317,4.8,5.1,99,0.00,,,0.00,0,TxWx,2013-02-28 07:22:00,
2013-02-28 01:27:00,33.0,33.0,29.67,West,268,3.0,3.3,99,0.00,,,0.00,0,TxWx,2013-02-28 07:27:00,
2013-02-28 01:32:00,33.0,33.0,29.67,West,281,7.5,8.4,99,0.06,,,0.01,0,TxWx,2013-02-28 07:32:00,
2013-02-28 01:37:00,33.1,33.0,29.67,NW,313,3.6,3.6,99,0.06,,,0.01,0,TxWx,2013-02-28 07:37:00,
2013-02-28 01:43:00,33.1,33.0,29.67,NNW,344,3.6,3.6,99,0.00,,,0.01,0,TxWx,2013-02-28 07:43:00,
2013-02-28 01:48:00,33.0,33.0,29.67,NNW,330,3.9,3.9,99,0.00,,,0.01,0,TxWx,2013-02-28 07:48:00,
2013-02-28 01:53:00,33.0,33.0,29.67,NNW,346,3.0,3.6,99,0.00,,,0.01,0,TxWx,2013-02-28 07:53:00,
2013-02-28 01:58:00,33.0,33.0,29.67,NW,319,4.2,4.2,99,0.00,,,0.01,0,TxWx,2013-02-28 07:58:00,
2013-02-28 02:04:00,32.9,33.0,29.67,North,10,2.4,2.4,99,0.00,,,0.01,0,TxWx,2013-02-28 08:04:00,
2013-02-28 02:09:00,33.0,33.0,29.67,North,356,7.5,7.5,99,0.00,,,0.01,0,TxWx,2013-02-28 08:09:00,
2013-02-28 02:14:00,32.9,33.0,29.67,North,3,6.6,6.6,99,0.00,,,0.01,0,TxWx,2013-02-28 08:14:00,
2013-02-28 02:19:00,32.9,33.0,29.68,NW,317,4.2,4.5,99,0.00,,,0.01,0,TxWx,2013-02-28 08:19:00,
2013-02-28 02:24:00,33.0,33.0,29.67,NNE,15,6.0,6.6,99,0.00,,,0.01,0,TxWx,2013-02-28 08:24:00,
2013-02-28 02:30:00,33.0,33.0,29.67,WNW,297,5.1,5.4,99,0.00,,,0.02,0,TxWx,2013-02-28 08:30:00,
2013-02-28 02:35:00,33.1,33.0,29.68,WNW,294,5.1,6.0,99,0.06,,,0.02,0,TxWx,2013-02-28 08:35:00,
2013-02-28 02:40:00,33.2,33.0,29.68,NW,314,3.9,4.5,99,0.06,,,0.02,0,TxWx,2013-02-28 08:40:00,
2013-02-28 02:45:00,33.3,33.0,29.68,North,357,1.2,1.5,99,0.00,,,0.02,0,TxWx,2013-02-28 08:45:00,
2013-02-28 02:50:00,33.2,33.0,29.68,North,1,7.2,7.2,99,0.00,,,0.02,0,TxWx,2013-02-28 08:50:00,
2013-02-28 02:55:00,33.2,33.0,29.68,West,273,3.0,3.6,99,0.00,,,0.02,0,TxWx,2013-02-28 08:55:00,
2013-02-28 03:01:00,33.1,33.0,29.68,WNW,291,5.4,6.0,99,0.06,,,0.03,0,TxWx,2013-02-28 09:01:00,
2013-02-28 03:06:00,33.1,33.0,29.69,WNW,289,3.3,3.9,99,0.06,,,0.03,0,TxWx,2013-02-28 09:06:00,
2013-02-28 03:11:00,33.0,33.0,29.68,North,7,4.8,6.0,99,0.00,,,0.03,0,TxWx,2013-02-28 09:11:00,
2013-02-28 03:16:00,33.2,33.0,29.68,NW,310,5.1,5.1,99,0.00,,,0.03,0,TxWx,2013-02-28 09:16:00,
2013-02-28 03:21:00,33.1,33.0,29.69,NW,307,5.4,5.4,99,0.00,,,0.03,0,TxWx,2013-02-28 09:21:00,
2013-02-28 03:27:00,33.1,33.0,29.69,NNW,328,4.8,5.4,99,0.00,,,0.04,0,TxWx,2013-02-28 09:27:00,
2013-02-28 03:32:00,33.1,33.0,29.69,NW,310,2.7,2.7,99,0.06,,,0.05,0,TxWx,2013-02-28 09:32:00,
2013-02-28 03:37:00,33.2,33.0,29.69,North,11,3.9,4.2,99,0.06,,,0.06,0,TxWx,2013-02-28 09:37:00,
2013-02-28 03:42:00,33.2,33.0,29.69,NW,313,3.9,3.9,99,0.12,,,0.06,0,TxWx,2013-02-28 09:42:00,
2013-02-28 03:47:00,33.3,33.0,29.70,WNW,292,2.4,2.4,99,0.12,,,0.07,0,TxWx,2013-02-28 09:47:00,
2013-02-28 03:52:00,33.3,33.0,29.70,NW,322,6.0,6.0,99,0.06,,,0.07,0,TxWx,2013-02-28 09:52:00,
2013-02-28 03:57:00,33.4,33.0,29.70,NNW,343,1.5,2.1,99,0.06,,,0.08,0,TxWx,2013-02-28 09:57:00,
2013-02-28 04:02:00,33.4,33.0,29.70,NNW,332,2.1,2.1,99,0.06,,,0.08,0,TxWx,2013-02-28 10:02:00,
2013-02-28 04:08:00,33.4,33.0,29.70,NW,320,2.7,3.0,99,0.06,,,0.08,0,TxWx,2013-02-28 10:08:00,
2013-02-28 04:13:00,33.4,33.0,29.70,North,10,3.3,3.3,99,0.00,,,0.08,0,TxWx,2013-02-28 10:13:00,
2013-02-28 04:18:00,33.4,33.0,29.70,North,358,3.3,3.9,99,0.00,,,0.09,0,TxWx,2013-02-28 10:18:00,
2013-02-28 04:23:00,33.5,32.0,29.71,NW,323,7.5,7.5,98,0.06,,,0.09,0,TxWx,2013-02-28 10:23:00,
2013-02-28 04:28:00,33.5,33.0,29.71,WNW,298,4.5,4.8,98,0.06,,,0.09,0,TxWx,2013-02-28 10:28:00,
2013-02-28 04:33:00,33.6,33.0,29.71,NE,34,1.5,2.1,98,0.00,,,0.10,0,TxWx,2013-02-28 10:33:00,
2013-02-28 04:38:00,33.6,33.0,29.72,NW,309,5.1,5.1,98,0.00,,,0.10,0,TxWx,2013-02-28 10:38:00,
2013-02-28 04:44:00,33.6,33.0,29.72,NW,317,4.5,4.8,98,0.06,,,0.10,0,TxWx,2013-02-28 10:44:00,
2013-02-28 04:49:00,33.7,33.0,29.72,NW,318,2.1,2.4,98,0.06,,,0.10,0,TxWx,2013-02-28 10:49:00,
2013-02-28 04:55:00,33.6,33.0,29.72,West,271,7.5,8.1,98,0.00,,,0.10,0,TxWx,2013-02-28 10:55:00,
2013-02-28 05:00:00,33.7,33.0,29.73,WNW,298,3.3,3.3,98,0.00,,,0.10,0,TxWx,2013-02-28 11:00:00,
2013-02-28 05:05:00,33.7,33.0,29.73,NW,311,6.9,6.9,97,0.00,,,0.10,0,TxWx,2013-02-28 11:05:00,
2013-02-28 05:10:00,33.8,33.0,29.73,NNW,336,5.1,5.1,97,0.00,,,0.10,0,TxWx,2013-02-28 11:10:00,
2013-02-28 05:15:00,33.6,33.0,29.73,NNW,328,6.9,10.5,97,0.00,,,0.11,0,TxWx,2013-02-28 11:15:00,
2013-02-28 05:20:00,33.6,33.0,29.73,NNW,327,8.1,8.1,97,0.00,,,0.11,0,TxWx,2013-02-28 11:20:00,
2013-02-28 05:25:00,33.6,33.0,29.73,NNE,29,1.5,1.8,97,0.06,,,0.11,0,TxWx,2013-02-28 11:25:00,
2013-02-28 05:30:00,33.7,33.0,29.73,NNE,22,1.5,1.8,97,0.06,,,0.11,0,TxWx,2013-02-28 11:30:00,
2013-02-28 05:35:00,33.5,32.0,29.74,NNW,330,7.2,9.0,97,0.00,,,0.11,0,TxWx,2013-02-28 11:35:00,
2013-02-28 05:40:00,33.5,32.0,29.74,WNW,301,7.2,7.2,98,0.00,,,0.12,0,TxWx,2013-02-28 11:40:00,
2013-02-28 05:45:00,33.5,33.0,29.74,NNW,347,5.4,7.2,98,0.06,,,0.12,0,TxWx,2013-02-28 11:45:00,
2013-02-28 05:51:00,33.6,33.0,29.74,NE,52,2.4,3.3,98,0.00,,,0.12,0,TxWx,2013-02-28 11:51:00,
2013-02-28 05:56:00,33.7,33.0,29.74,NNW,334,6.0,6.6,98,0.00,,,0.12,0,TxWx,2013-02-28 11:56:00,
2013-02-28 06:01:00,33.7,33.0,29.75,WSW,254,1.2,1.2,98,0.06,,,0.13,0,TxWx,2013-02-28 12:01:00,
2013-02-28 06:06:00,33.8,33.0,29.75,NW,309,1.8,2.1,98,0.06,,,0.13,0,TxWx,2013-02-28 12:06:00,
2013-02-28 06:11:00,33.8,33.0,29.75,NW,308,4.5,4.5,97,0.00,,,0.13,0,TxWx,2013-02-28 12:11:00,
2013-02-28 06:16:00,33.7,33.0,29.75,WNW,301,4.5,5.4,97,0.00,,,0.14,0,TxWx,2013-02-28 12:16:00,
2013-02-28 06:22:00,33.6,33.0,29.75,NNW,329,3.6,3.6,97,0.06,,,0.14,0,TxWx,2013-02-28 12:22:00,
2013-02-28 06:27:00,33.5,33.0,29.75,WSW,256,3.0,3.6,97,0.06,,,0.14,0,TxWx,2013-02-28 12:27:00,
2013-02-28 06:32:00,33.5,33.0,29.75,WNW,293,3.0,3.3,97,0.00,,,0.14,2,TxWx,2013-02-28 12:32:00,
2013-02-28 06:37:00,33.6,33.0,29.75,WNW,288,2.7,2.7,98,0.00,,,0.14,2,TxWx,2013-02-28 12:37:00,
2013-02-28 06:42:00,33.7,33.0,29.76,WNW,301,3.6,3.6,97,0.00,,,0.14,9,TxWx,2013-02-28 12:42:00,
2013-02-28 06:48:00,33.7,33.0,29.76,NW,317,4.8,4.8,97,0.00,,,0.14,9,TxWx,2013-02-28 12:48:00,
2013-02-28 06:53:00,33.7,33.0,29.76,WNW,288,6.3,6.9,97,0.06,,,0.15,18,TxWx,2013-02-28 12:53:00,
2013-02-28 06:58:00,33.8,33.0,29.77,NNW,329,5.4,6.3,97,0.06,,,0.16,19,TxWx,2013-02-28 12:58:00,
2013-02-28 07:03:00,33.8,33.0,29.77,NNW,337,8.1,10.2,97,0.12,,,0.17,14,TxWx,2013-02-28 13:03:00,
2013-02-28 07:08:00,33.9,33.0,29.77,WNW,288,3.9,4.2,97,0.12,,,0.17,10,TxWx,2013-02-28 13:08:00,
2013-02-28 07:13:00,33.9,33.0,29.77,NW,316,5.4,6.3,97,0.00,,,0.17,19,TxWx,2013-02-28 13:13:00,
2013-02-28 07:18:00,33.9,33.0,29.78,North,351,3.9,3.9,97,0.00,,,0.17,32,TxWx,2013-02-28 13:18:00,
2013-02-28 07:24:00,34.0,33.0,29.78,WNW,298,4.5,4.8,97,0.00,,,0.17,36,TxWx,2013-02-28 13:24:00,
2013-02-28 07:29:00,34.1,33.0,29.78,NNE,32,6.0,7.5,97,0.00,,,0.18,42,TxWx,2013-02-28 13:29:00,
2013-02-28 07:34:00,34.0,33.0,29.78,NW,310,3.9,3.9,97,0.06,,,0.18,60,TxWx,2013-02-28 13:34:00,
2013-02-28 07:39:00,34.1,33.0,29.79,NNW,343,3.9,4.2,97,0.06,,,0.19,58,TxWx,2013-02-28 13:39:00,
2013-02-28 07:44:00,34.1,33.0,29.79,NW,322,3.0,3.6,97,0.06,,,0.20,77,TxWx,2013-02-28 13:44:00,
2013-02-28 07:50:00,34.2,33.0,29.80,North,9,2.4,2.4,97,0.06,,,0.20,77,TxWx,2013-02-28 13:50:00,
2013-02-28 07:55:00,34.1,33.0,29.80,WNW,293,8.4,8.4,96,0.06,,,0.21,63,TxWx,2013-02-28 13:55:00,
2013-02-28 08:00:00,34.1,33.0,29.80,NNE,12,4.8,4.8,96,0.06,,,0.21,95,TxWx,2013-02-28 14:00:00,
2013-02-28 08:05:00,34.2,33.0,29.80,NW,322,3.0,3.3,96,0.06,,,0.22,100,TxWx,2013-02-28 14:05:00,
2013-02-28 08:10:00,34.0,33.0,29.80,NW,324,6.0,6.0,96,0.06,,,0.22,65,TxWx,2013-02-28 14:10:00,
2013-02-28 08:15:00,34.1,33.0,29.81,NNW,348,4.2,6.3,97,0.06,,,0.23,84,TxWx,2013-02-28 14:15:00,
2013-02-28 08:20:00,34.3,33.0,29.81,NW,321,7.5,10.2,96,0.06,,,0.23,81,TxWx,2013-02-28 14:20:00,
2013-02-28 08:26:00,34.5,33.0,29.81,NNW,327,5.1,5.1,96,0.06,,,0.24,51,TxWx,2013-02-28 14:26:00,
2013-02-28 08:31:00,34.3,33.0,29.81,WNW,297,6.3,6.3,96,0.06,,,0.24,80,TxWx,2013-02-28 14:31:00,
2013-02-28 08:36:00,34.3,33.0,29.81,WNW,302,3.3,4.5,96,0.06,,,0.25,86,TxWx,2013-02-28 14:36:00,
2013-02-28 08:41:00,34.3,33.0,29.81,WNW,293,4.5,4.5,96,0.06,,,0.26,64,TxWx,2013-02-28 14:41:00,
2013-02-28 08:46:00,34.3,33.0,29.81,North,11,2.7,2.7,96,0.06,,,0.26,66,TxWx,2013-02-28 14:46:00,
2013-02-28 08:51:00,34.3,33.0,29.82,NW,310,3.9,3.9,96,0.06,,,0.26,75,TxWx,2013-02-28 14:51:00,
2013-02-28 08:56:00,34.3,33.0,29.82,North,4,5.1,5.1,96,0.06,,,0.26,88,TxWx,2013-02-28 14:56:00,
2013-02-28 09:01:00,34.4,33.0,29.82,NW,316,6.3,7.5,96,0.06,,,0.27,79,TxWx,2013-02-28 15:01:00,
2013-02-28 09:06:00,34.3,33.0,29.82,NW,312,5.7,6.9,96,0.06,,,0.27,88,TxWx,2013-02-28 15:06:00,
2013-02-28 09:11:00,34.1,33.0,29.82,NW,318,6.3,6.3,96,0.06,,,0.28,115,TxWx,2013-02-28 15:11:00,
2013-02-28 09:16:00,34.1,33.0,29.82,NNW,339,2.1,2.7,96,0.06,,,0.28,79,TxWx,2013-02-28 15:16:00,
2013-02-28 09:22:00,34.1,33.0,29.82,NW,326,1.8,2.1,96,0.06,,,0.29,64,TxWx,2013-02-28 15:22:00,
2013-02-28 09:27:00,34.1,33.0,29.83,NE,34,6.0,6.0,96,0.06,,,0.29,93,TxWx,2013-02-28 15:27:00,
2013-02-28 09:32:00,34.2,33.0,29.83,NNE,32,1.8,1.8,96,0.06,,,0.30,94,TxWx,2013-02-28 15:32:00,
2013-02-28 09:37:00,34.3,33.0,29.83,NNE,23,4.8,4.8,96,0.06,,,0.30,63,TxWx,2013-02-28 15:37:00,
2013-02-28 09:42:00,34.3,33.0,29.83,North,356,3.9,4.5,96,0.00,,,0.30,63,TxWx,2013-02-28 15:42:00,
2013-02-28 09:47:00,34.3,33.0,29.83,NW,325,7.5,7.8,95,0.00,,,0.31,91,TxWx,2013-02-28 15:47:00,
2013-02-28 09:52:00,34.6,34.0,29.83,NNW,334,3.3,3.6,96,0.06,,,0.31,161,TxWx,2013-02-28 15:52:00,
2013-02-28 09:57:00,34.7,34.0,29.84,NNW,344,3.6,3.6,95,0.06,,,0.32,125,TxWx,2013-02-28 15:57:00,
2013-02-28 10:02:00,34.7,34.0,29.84,North,356,3.6,3.6,95,0.06,,,0.32,104,TxWx,2013-02-28 16:02:00,
2013-02-28 10:07:00,34.7,34.0,29.84,North,3,5.7,5.7,95,0.06,,,0.32,170,TxWx,2013-02-28 16:07:00,
2013-02-28 10:12:00,34.8,34.0,29.84,NNE,12,4.5,5.4,95,0.06,,,0.33,170,TxWx,2013-02-28 16:12:00,
2013-02-28 10:17:00,34.9,34.0,29.85,North,7,6.9,7.5,95,0.06,,,0.33,127,TxWx,2013-02-28 16:17:00,
2013-02-28 10:23:00,34.8,34.0,29.85,NNE,12,7.2,7.2,95,0.00,,,0.33,159,TxWx,2013-02-28 16:23:00,
2013-02-28 10:28:00,34.8,33.0,29.85,NNW,327,6.3,6.3,94,0.00,,,0.34,163,TxWx,2013-02-28 16:28:00,
2013-02-28 10:33:00,35.1,33.0,29.85,North,10,5.7,6.6,94,0.06,,,0.34,262,TxWx,2013-02-28 16:33:00,
2013-02-28 10:38:00,35.2,33.0,29.85,WNW,287,2.1,2.4,94,0.06,,,0.34,192,TxWx,2013-02-28 16:38:00,
2013-02-28 10:43:00,35.1,33.0,29.85,NW,322,5.7,5.7,94,0.06,,,0.35,178,TxWx,2013-02-28 16:43:00,
2013-02-28 10:48:00,35.0,33.0,29.85,NNE,33,2.7,2.7,93,0.06,,,0.35,175,TxWx,2013-02-28 16:48:00,
2013-02-28 10:53:00,35.0,33.0,29.85,NNE,14,3.9,4.2,94,0.00,,,0.35,184,TxWx,2013-02-28 16:53:00,
2013-02-28 10:58:00,35.1,33.0,29.86,NNW,342,8.4,9.6,94,0.00,,,0.35,211,TxWx,2013-02-28 16:58:00,
2013-02-28 11:04:00,35.2,33.0,29.86,NW,321,3.6,3.6,94,0.00,,,0.35,239,TxWx,2013-02-28 17:04:00,
2013-02-28 11:09:00,35.4,33.0,29.86,North,8,3.0,3.0,93,0.00,,,0.35,153,TxWx,2013-02-28 17:09:00,
2013-02-28 11:14:00,35.1,33.0,29.86,WNW,300,4.2,4.5,93,0.00,,,0.35,155,TxWx,2013-02-28 17:14:00,
2013-02-28 11:19:00,35.0,33.0,29.86,NW,325,5.4,6.9,93,0.00,,,0.35,221,TxWx,2013-02-28 17:19:00,
2013-02-28 11:24:00,35.0,33.0,29.86,NNW,342,4.8,4.8,93,0.00,,,0.35,178,TxWx,2013-02-28 17:24:00,
2013-02-28 11:29:00,35.2,33.0,29.87,NNE,24,11.1,12.6,93,0.00,,,0.35,228,TxWx,2013-02-28 17:29:00,
2013-02-28 11:34:00,35.3,33.0,29.86,South,180,2.1,2.4,93,0.00,,,0.35,211,TxWx,2013-02-28 17:34:00,
2013-02-28 11:39:00,35.3,33.0,29.87,West,271,2.1,2.4,93,0.00,,,0.35,285,TxWx,2013-02-28 17:39:00,
2013-02-28 11:44:00,35.5,34.0,29.87,WSW,258,3.6,3.6,93,0.00,,,0.35,289,TxWx,2013-02-28 17:44:00,
2013-02-28 11:50:00,35.4,33.0,29.86,WSW,249,1.2,1.2,92,0.00,,,0.35,216,TxWx,2013-02-28 17:50:00,
2013-02-28 11:55:00,35.4,33.0,29.86,North,350,6.9,6.9,92,0.00,,,0.35,252,TxWx,2013-02-28 17:55:00,
2013-02-28 12:00:00,35.6,34.0,29.87,North,355,5.1,5.4,91,0.00,,,0.35,279,TxWx,2013-02-28 18:00:00,
2013-02-28 12:05:00,35.8,34.0,29.87,West,260,2.7,3.0,91,0.00,,,0.35,212,TxWx,2013-02-28 18:05:00,
2013-02-28 12:11:00,35.8,33.0,29.87,NNE,20,9.0,9.0,90,0.06,,,0.36,214,TxWx,2013-02-28 18:11:00,
2013-02-28 12:16:00,36.1,33.0,29.87,NNE,19,5.1,5.1,90,0.06,,,0.36,199,TxWx,2013-02-28 18:16:00,
2013-02-28 12:21:00,35.9,33.0,29.87,North,7,15.3,15.3,88,0.00,,,0.36,223,TxWx,2013-02-28 18:21:00,
2013-02-28 12:26:00,36.2,33.0,29.87,North,5,5.4,5.4,88,0.00,,,0.36,193,TxWx,2013-02-28 18:26:00,
2013-02-28 12:31:00,36.2,33.0,29.87,NNE,29,7.2,7.8,87,0.00,,,0.36,275,TxWx,2013-02-28 18:31:00,
2013-02-28 12:36:00,36.2,32.0,29.87,NNE,26,13.8,13.8,86,0.00,,,0.36,221,TxWx,2013-02-28 18:36:00,
2013-02-28 12:42:00,36.2,32.0,29.87,North,8,9.3,9.3,86,0.00,,,0.36,197,TxWx,2013-02-28 18:42:00,
2013-02-28 12:47:00,36.1,31.0,29.88,North,4,6.9,6.9,85,0.00,,,0.36,203,TxWx,2013-02-28 18:47:00,
2013-02-28 12:52:00,36.2,31.0,29.88,NW,310,8.1,9.9,85,0.00,,,0.36,191,TxWx,2013-02-28 18:52:00,
2013-02-28 12:57:00,36.0,31.0,29.88,West,262,8.1,12.0,85,0.00,,,0.36,156,TxWx,2013-02-28 18:57:00,
2013-02-28 13:02:00,35.9,31.0,29.88,North,358,12.3,12.6,85,0.00,,,0.36,197,TxWx,2013-02-28 19:02:00,
2013-02-28 13:07:00,35.9,32.0,29.88,NNW,328,5.4,6.0,86,0.00,,,0.36,175,TxWx,2013-02-28 19:07:00,
2013-02-28 13:13:00,35.8,32.0,29.88,North,3,9.0,9.0,86,0.00,,,0.36,125,TxWx,2013-02-28 19:13:00,
2013-02-28 13:18:00,35.3,31.0,29.88,North,350,4.8,4.8,88,0.00,,,0.36,111,TxWx,2013-02-28 19:18:00,
2013-02-28 13:23:00,34.7,31.0,29.88,North,352,8.4,11.1,89,0.00,,,0.36,153,TxWx,2013-02-28 19:23:00,
2013-02-28 13:28:00,34.8,32.0,29.88,North,359,12.9,12.9,89,0.00,,,0.36,199,TxWx,2013-02-28 19:28:00,
2013-02-28 13:33:00,34.9,31.0,29.88,North,356,13.8,13.8,89,0.00,,,0.36,189,TxWx,2013-02-28 19:33:00,
2013-02-28 13:39:00,35.1,32.0,29.89,NNE,29,8.7,8.7,89,0.00,,,0.36,183,TxWx,2013-02-28 19:39:00,
2013-02-28 13:44:00,34.9,32.0,29.89,NNW,347,10.2,10.2,89,0.00,,,0.36,147,TxWx,2013-02-28 19:44:00,
2013-02-28 13:49:00,35.0,32.0,29.89,West,273,2.7,3.0,90,0.00,,,0.36,170,TxWx,2013-02-28 19:49:00,
2013-02-28 13:54:00,34.6,33.0,29.89,NNW,343,9.3,11.4,91,0.00,,,0.36,133,TxWx,2013-02-28 19:54:00,
2013-02-28 13:59:00,34.4,31.0,29.89,NW,315,3.0,3.9,91,0.00,,,0.36,120,TxWx,2013-02-28 19:59:00,
2013-02-28 14:04:00,34.0,31.0,29.90,North,351,4.5,4.5,91,0.00,,,0.36,130,TxWx,2013-02-28 20:04:00,
2013-02-28 14:09:00,33.7,31.0,29.89,NNE,18,6.0,6.9,92,0.00,,,0.36,117,TxWx,2013-02-28 20:09:00,
2013-02-28 14:14:00,33.6,32.0,29.90,WNW,287,6.3,6.3,93,0.00,,,0.36,156,TxWx,2013-02-28 20:14:00,
2013-02-28 14:19:00,33.6,32.0,29.90,NW,318,5.4,5.4,93,0.00,,,0.36,145,TxWx,2013-02-28 20:19:00,
2013-02-28 14:24:00,33.4,30.0,29.90,NE,36,2.7,3.0,93,0.00,,,0.36,137,TxWx,2013-02-28 20:24:00,
2013-02-28 14:30:00,33.2,30.0,29.90,NNW,345,14.1,18.9,94,0.00,,,0.36,129,TxWx,2013-02-28 20:30:00,
2013-02-28 14:35:00,33.2,30.0,29.90,NNW,340,4.5,6.6,94,0.00,,,0.36,138,TxWx,2013-02-28 20:35:00,
2013-02-28 14:40:00,33.2,30.0,29.91,NNW,334,8.4,11.1,94,0.00,,,0.36,120,TxWx,2013-02-28 20:40:00,
2013-02-28 14:45:00,33.3,30.0,29.91,NNE,16,8.1,12.3,93,0.00,,,0.36,162,TxWx,2013-02-28 20:45:00,
2013-02-28 14:51:00,33.1,30.0,29.91,NNE,12,7.8,10.5,93,0.00,,,0.36,154,TxWx,2013-02-28 20:51:00,
2013-02-28 14:56:00,33.1,30.0,29.91,NW,325,6.0,6.6,93,0.00,,,0.36,122,TxWx,2013-02-28 20:56:00,
2013-02-28 15:01:00,33.0,30.0,29.92,North,8,6.9,7.5,93,0.00,,,0.36,99,TxWx,2013-02-28 21:01:00,
2013-02-28 15:06:00,33.0,30.0,29.92,West,278,4.2,4.2,93,0.00,,,0.36,81,TxWx,2013-02-28 21:06:00,
2013-02-28 15:11:00,32.9,30.0,29.92,NNE,26,15.9,18.6,93,0.00,,,0.36,84,TxWx,2013-02-28 21:11:00,
2013-02-28 15:16:00,33.0,30.0,29.92,West,261,3.9,3.9,92,0.00,,,0.36,76,TxWx,2013-02-28 21:16:00,
2013-02-28 15:21:00,32.9,30.0,29.93,NE,50,6.3,6.3,91,0.00,,,0.36,65,TxWx,2013-02-28 21:21:00,
2013-02-28 15:26:00,33.0,29.0,29.93,NNW,331,6.9,7.2,90,0.00,,,0.36,74,TxWx,2013-02-28 21:26:00,
2013-02-28 15:31:00,33.0,29.0,29.93,NNW,343,10.2,10.5,90,0.00,,,0.36,74,TxWx,2013-02-28 21:31:00,
2013-02-28 15:36:00,33.1,29.0,29.93,NNW,346,3.9,5.1,90,0.00,,,0.36,61,TxWx,2013-02-28 21:36:00,
2013-02-28 15:42:00,33.0,29.0,29.93,NNW,343,5.7,8.1,89,0.00,,,0.36,60,TxWx,2013-02-28 21:42:00,
2013-02-28 15:47:00,33.0,29.0,29.94,NW,312,5.7,5.7,89,0.00,,,0.36,59,TxWx,2013-02-28 21:47:00,
2013-02-28 15:52:00,33.1,29.0,29.94,North,9,11.1,13.2,89,0.00,,,0.36,56,TxWx,2013-02-28 21:52:00,
2013-02-28 15:57:00,33.2,29.0,29.94,WNW,294,6.0,6.0,89,0.00,,,0.36,63,TxWx,2013-02-28 21:57:00,
2013-02-28 16:02:00,33.2,29.0,29.95,WNW,290,3.6,4.8,88,0.00,,,0.36,51,TxWx,2013-02-28 22:02:00,
2013-02-28 16:07:00,33.2,29.0,29.95,NW,317,6.9,7.2,88,0.00,,,0.36,43,TxWx,2013-02-28 22:07:00,
2013-02-28 16:12:00,33.2,29.0,29.95,NNW,336,8.4,9.3,87,0.00,,,0.36,30,TxWx,2013-02-28 22:12:00,
2013-02-28 16:17:00,33.2,29.0,29.95,WNW,302,6.0,6.6,87,0.00,,,0.36,30,TxWx,2013-02-28 22:17:00,
2013-02-28 16:23:00,33.0,29.0,29.95,NW,316,4.5,5.7,88,0.00,,,0.36,27,TxWx,2013-02-28 22:23:00,
2013-02-28 16:28:00,32.9,29.0,29.96,NW,320,9.3,9.3,88,0.00,,,0.36,23,TxWx,2013-02-28 22:28:00,
2013-02-28 16:33:00,32.8,29.0,29.96,North,351,3.9,4.8,89,0.00,,,0.36,17,TxWx,2013-02-28 22:33:00,
2013-02-28 16:38:00,32.5,29.0,29.96,NNW,344,3.9,5.4,90,0.00,,,0.36,14,TxWx,2013-02-28 22:38:00,
2013-02-28 16:43:00,32.4,29.0,29.96,ESE,123,2.4,2.7,91,0.00,,,0.36,12,TxWx,2013-02-28 22:43:00,
2013-02-28 16:48:00,32.2,29.0,29.97,NW,324,2.1,2.7,92,0.00,,,0.36,12,TxWx,2013-02-28 22:48:00,
2013-02-28 16:53:00,32.1,29.0,29.97,North,353,6.0,6.0,92,0.00,,,0.36,9,TxWx,2013-02-28 22:53:00,
2013-02-28 16:59:00,31.9,29.0,29.97,NNW,346,7.5,9.3,93,0.00,,,0.36,8,TxWx,2013-02-28 22:59:00,
2013-02-28 17:04:00,31.7,29.0,29.97,NNW,338,8.7,9.0,93,0.00,,,0.36,7,TxWx,2013-02-28 23:04:00,
2013-02-28 17:09:00,31.7,29.0,29.97,NW,309,4.2,5.4,93,0.00,,,0.36,5,TxWx,2013-02-28 23:09:00,
2013-02-28 17:14:00,31.6,29.0,29.97,WNW,302,3.0,3.0,93,0.00,,,0.36,4,TxWx,2013-02-28 23:14:00,
2013-02-28 17:19:00,31.6,29.0,29.98,NNW,340,3.6,3.6,93,0.00,,,0.36,2,TxWx,2013-02-28 23:19:00,
2013-02-28 17:25:00,31.5,29.0,29.98,NNW,330,2.7,2.7,93,0.00,,,0.36,1,TxWx,2013-02-28 23:25:00,
2013-02-28 17:30:00,31.5,29.0,29.98,NNE,14,19.5,19.5,92,0.00,,,0.36,0,TxWx,2013-02-28 23:30:00,
2013-02-28 17:35:00,31.6,29.0,29.99,ESE,108,1.5,1.8,91,0.00,,,0.36,0,TxWx,2013-02-28 23:35:00,
2013-02-28 17:40:00,31.6,29.0,29.99,West,271,2.1,2.4,91,0.00,,,0.36,0,TxWx,2013-02-28 23:40:00,
2013-02-28 17:45:00,31.6,29.0,29.99,NW,319,6.3,6.3,91,0.00,,,0.36,0,TxWx,2013-02-28 23:45:00,
2013-02-28 17:51:00,31.5,29.0,29.99,NNW,342,6.6,6.6,91,0.00,,,0.36,0,TxWx,2013-02-28 23:51:00,
2013-02-28 17:56:00,31.4,28.0,29.99,NW,322,3.6,4.8,91,0.00,,,0.36,0,TxWx,2013-02-28 23:56:00,
2013-02-28 18:01:00,31.4,28.0,29.99,WSW,255,3.0,3.9,91,0.00,,,0.36,0,TxWx,2013-03-01 00:01:00,
2013-02-28 18:06:00,31.4,27.0,29.99,NNW,337,5.4,5.7,90,0.00,,,0.36,0,TxWx,2013-03-01 00:06:00,
2013-02-28 18:12:00,31.5,28.0,30.00,NNE,17,1.8,2.1,90,0.00,,,0.36,0,TxWx,2013-03-01 00:12:00,
2013-02-28 18:17:00,31.7,28.0,30.00,NE,37,5.1,8.1,88,0.00,,,0.36,0,TxWx,2013-03-01 00:17:00,
2013-02-28 18:22:00,31.8,27.0,30.00,NW,317,7.8,7.8,86,0.00,,,0.36,0,TxWx,2013-03-01 00:22:00,
2013-02-28 18:27:00,31.9,27.0,30.00,NW,318,4.5,4.8,86,0.00,,,0.36,0,TxWx,2013-03-01 00:27:00,
2013-02-28 18:32:00,31.8,27.0,30.00,NW,324,7.5,9.0,86,0.00,,,0.36,0,TxWx,2013-03-01 00:32:00,
2013-02-28 18:38:00,31.8,27.0,30.01,NNW,347,3.0,3.0,85,0.00,,,0.36,0,TxWx,2013-03-01 00:38:00,
2013-02-28 18:43:00,31.8,27.0,30.01,NW,318,2.7,2.7,85,0.00,,,0.36,0,TxWx,2013-03-01 00:43:00,
2013-02-28 18:48:00,31.9,27.0,30.01,NNW,340,2.7,2.7,85,0.00,,,0.36,0,TxWx,2013-03-01 00:48:00,
2013-02-28 18:53:00,31.8,27.0,30.00,WSW,252,7.2,7.2,85,0.00,,,0.36,0,TxWx,2013-03-01 00:53:00,
2013-02-28 18:58:00,31.9,27.0,30.00,NW,314,4.8,5.4,85,0.00,,,0.36,0,TxWx,2013-03-01 00:58:00,
2013-02-28 19:03:00,31.8,27.0,30.01,NNE,12,14.1,14.1,85,0.00,,,0.36,0,TxWx,2013-03-01 01:03:00,
2013-02-28 19:08:00,31.9,27.0,30.01,NE,41,7.2,8.7,85,0.00,,,0.36,0,TxWx,2013-03-01 01:08:00,
2013-02-28 19:13:00,31.8,27.0,30.00,North,4,4.8,4.8,85,0.00,,,0.36,0,TxWx,2013-03-01 01:13:00,
2013-02-28 19:18:00,31.8,27.0,30.01,North,358,8.1,8.4,85,0.00,,,0.36,0,TxWx,2013-03-01 01:18:00,
2013-02-28 19:23:00,31.8,27.0,30.01,North,8,3.9,3.9,84,0.00,,,0.36,0,TxWx,2013-03-01 01:23:00,
2013-02-28 19:29:00,31.6,27.0,30.01,NNW,328,8.1,9.6,85,0.00,,,0.36,0,TxWx,2013-03-01 01:29:00,
2013-02-28 19:34:00,31.3,26.0,30.01,NW,311,5.4,5.4,86,0.00,,,0.36,0,TxWx,2013-03-01 01:34:00,
2013-02-28 19:39:00,31.1,27.0,30.01,North,5,11.7,13.5,88,0.00,,,0.36,0,TxWx,2013-03-01 01:39:00,
2013-02-28 19:45:00,31.1,27.0,30.00,West,276,3.6,4.2,88,0.00,,,0.36,0,TxWx,2013-03-01 01:45:00,
2013-02-28 19:50:00,31.1,27.0,30.00,NNE,31,10.2,11.7,88,0.00,,,0.36,0,TxWx,2013-03-01 01:50:00,
2013-02-28 19:55:00,31.1,27.0,30.00,NNE,22,4.2,6.0,88,0.00,,,0.36,0,TxWx,2013-03-01 01:55:00,
2013-02-28 20:01:00,31.0,27.0,30.00,WNW,300,4.2,4.8,88,0.00,,,0.36,0,TxWx,2013-03-01 02:01:00,
2013-02-28 20:06:00,31.0,27.0,30.00,WNW,300,3.9,4.5,89,0.00,,,0.36,0,TxWx,2013-03-01 02:06:00,
2013-02-28 20:11:00,31.1,27.0,30.00,North,353,5.7,5.7,88,0.00,,,0.36,0,TxWx,2013-03-01 02:11:00,
2013-02-28 20:16:00,31.1,27.0,30.00,NE,37,8.4,11.4,88,0.00,,,0.36,0,TxWx,2013-03-01 02:16:00,
2013-02-28 20:21:00,31.2,27.0,30.00,NNW,328,4.8,4.8,88,0.00,,,0.36,0,TxWx,2013-03-01 02:21:00,
2013-02-28 20:26:00,31.2,27.0,30.00,NNW,337,7.5,9.6,88,0.00,,,0.36,0,TxWx,2013-03-01 02:26:00,
2013-02-28 20:31:00,31.3,27.0,30.00,NW,304,1.5,1.8,88,0.00,,,0.36,0,TxWx,2013-03-01 02:31:00,
2013-02-28 20:37:00,31.3,27.0,30.00,NW,322,2.4,2.7,88,0.00,,,0.36,0,TxWx,2013-03-01 02:37:00,
2013-02-28 20:42:00,31.3,27.0,30.00,NNW,341,4.8,5.1,87,0.00,,,0.36,0,TxWx,2013-03-01 02:42:00,
2013-02-28 20:47:00,31.3,27.0,30.00,North,352,6.9,6.9,87,0.00,,,0.36,0,TxWx,2013-03-01 02:47:00,
2013-02-28 20:52:00,31.3,26.0,30.00,NNW,333,4.2,5.7,87,0.00,,,0.36,0,TxWx,2013-03-01 02:52:00,
2013-02-28 20:57:00,31.3,26.0,30.00,NNW,347,5.4,6.9,87,0.00,,,0.36,0,TxWx,2013-03-01 02:57:00,
2013-02-28 21:02:00,31.3,26.0,30.00,NNW,341,4.5,4.8,87,0.00,,,0.36,0,TxWx,2013-03-01 03:02:00,
2013-02-28 21:07:00,31.2,27.0,30.00,North,354,4.5,5.4,87,0.00,,,0.36,0,TxWx,2013-03-01 03:07:00,
2013-02-28 21:12:00,31.2,27.0,30.00,North,10,9.0,9.0,87,0.00,,,0.36,0,TxWx,2013-03-01 03:12:00,
2013-02-28 21:18:00,31.1,26.0,30.00,NNW,346,8.4,8.4,87,0.00,,,0.36,0,TxWx,2013-03-01 03:18:00,
2013-02-28 21:23:00,31.2,26.0,30.00,WNW,286,2.7,3.0,86,0.00,,,0.36,0,TxWx,2013-03-01 03:23:00,
2013-02-28 21:28:00,31.2,26.0,30.00,North,3,9.6,9.6,86,0.00,,,0.36,0,TxWx,2013-03-01 03:28:00,
2013-02-28 21:33:00,31.2,26.0,30.00,North,353,6.3,6.9,86,0.00,,,0.36,0,TxWx,2013-03-01 03:33:00,
2013-02-28 21:39:00,31.2,26.0,30.00,NNE,15,7.8,7.8,85,0.00,,,0.36,0,TxWx,2013-03-01 03:39:00,
2013-02-28 21:44:00,31.2,26.0,30.00,NW,318,3.6,5.7,85,0.00,,,0.36,0,TxWx,2013-03-01 03:44:00,
2013-02-28 21:49:00,31.2,26.0,30.00,NE,34,3.9,3.9,85,0.00,,,0.36,0,TxWx,2013-03-01 03:49:00,
2013-02-28 21:54:00,31.1,26.0,30.00,NW,313,10.5,10.5,85,0.00,,,0.36,0,TxWx,2013-03-01 03:54:00,
2013-02-28 22:00:00,31.0,26.0,30.00,NNE,17,4.5,6.6,86,0.00,,,0.36,0,TxWx,2013-03-01 04:00:00,
2013-02-28 22:05:00,31.0,26.0,30.00,NNW,337,5.7,7.8,86,0.00,,,0.36,0,TxWx,2013-03-01 04:05:00,
2013-02-28 22:10:00,31.0,26.0,30.00,North,352,9.0,10.8,86,0.00,,,0.36,0,TxWx,2013-03-01 04:10:00,
2013-02-28 22:15:00,31.0,26.0,30.00,WNW,300,5.4,5.7,86,0.00,,,0.36,0,TxWx,2013-03-01 04:15:00,
2013-02-28 22:21:00,31.0,26.0,30.00,NNE,30,3.9,4.8,86,0.00,,,0.36,0,TxWx,2013-03-01 04:21:00,
2013-02-28 22:26:00,31.0,26.0,30.00,NNW,334,3.6,3.6,86,0.00,,,0.36,0,TxWx,2013-03-01 04:26:00,
2013-02-28 22:31:00,30.9,26.0,30.00,North,5,2.4,2.7,87,0.00,,,0.36,0,TxWx,2013-03-01 04:31:00,
2013-02-28 22:37:00,30.7,27.0,30.00,North,353,5.1,5.1,88,0.00,,,0.36,0,TxWx,2013-03-01 04:37:00,
2013-02-28 22:42:00,30.5,27.0,30.00,NNW,343,4.8,4.8,89,0.00,,,0.36,0,TxWx,2013-03-01 04:42:00,
2013-02-28 22:47:00,30.3,27.0,30.00,WSW,254,1.2,1.2,91,0.00,,,0.36,0,TxWx,2013-03-01 04:47:00,
2013-02-28 22:52:00,30.1,27.0,30.00,NNW,348,1.8,2.1,92,0.00,,,0.36,0,TxWx,2013-03-01 04:52:00,
2013-02-28 22:57:00,30.0,27.0,30.01,NW,325,1.8,1.8,93,0.00,,,0.36,0,TxWx,2013-03-01 04:57:00,
2013-02-28 23:00:00,30.0,27.0,30.00,NNW,336,4.2,4.2,93,0.00,,,0.36,0,TxWx,2013-03-01 05:00:00,
2013-02-28 23:06:00,30.0,27.0,30.00,NW,310,4.8,5.1,94,0.00,,,0.36,0,TxWx,2013-03-01 05:06:00,
2013-02-28 23:11:00,30.2,27.0,30.01,NW,323,1.5,1.5,94,0.00,,,0.36,0,TxWx,2013-03-01 05:11:00,
2013-02-28 23:17:00,30.2,27.0,30.00,NE,38,3.6,3.6,94,0.00,,,0.36,0,TxWx,2013-03-01 05:17:00,
2013-02-28 23:22:00,30.2,27.0,30.01,WNW,285,2.7,2.7,94,0.00,,,0.36,0,TxWx,2013-03-01 05:22:00,
2013-02-28 23:27:00,30.3,27.0,30.00,NE,44,1.8,2.1,94,0.00,,,0.36,0,TxWx,2013-03-01 05:27:00,
2013-02-28 23:32:00,30.4,27.0,30.00,North,9,1.5,1.5,93,0.00,,,0.36,0,TxWx,2013-03-01 05:32:00,
2013-02-28 23:38:00,30.3,27.0,30.00,NW,323,2.7,3.3,92,0.00,,,0.36,0,TxWx,2013-03-01 05:38:00,
2013-02-28 23:43:00,30.4,27.0,30.00,NW,317,2.7,2.7,91,0.00,,,0.36,0,TxWx,2013-03-01 05:43:00,
2013-02-28 23:48:00,30.6,27.0,30.00,NNE,21,1.2,1.2,89,0.00,,,0.36,0,TxWx,2013-03-01 05:48:00,
2013-02-28 23:53:00,30.7,27.0,30.00,NW,315,2.7,3.0,87,0.00,,,0.36,0,TxWx,2013-03-01 05:53:00,
2013-02-28 23:59:00,30.9,26.0,30.00,WNW,302,7.8,7.8,86,0.00,,,0.36,0,TxWx,2013-03-01 05:59:00,